createdAt,value
2019-04-09T00:01:59.350Z,13.90
2019-04-09T00:04:33.291Z,14.00
2019-04-09T00:07:06.068Z,14.00
2019-04-09T00:09:49.684Z,14.00
2019-04-09T00:12:21.828Z,13.90
2019-04-09T00:14:56.800Z,14.00
2019-04-09T00:17:29.771Z,13.90
2019-04-09T00:20:02.437Z,13.90
2019-04-09T00:22:35.070Z,13.90
2019-04-09T00:25:08.931Z,14.00
2019-04-09T00:27:43.163Z,14.00
2019-04-09T00:30:15.796Z,14.00
2019-04-09T00:32:48.982Z,14.00
2019-04-09T00:35:22.679Z,14.00
2019-04-09T00:37:54.512Z,14.10
2019-04-09T00:40:30.262Z,14.00
2019-04-09T00:43:02.728Z,14.10
2019-04-09T00:45:38.759Z,14.10
2019-04-09T00:48:11.492Z,14.10
2019-04-09T00:50:45.795Z,14.10
2019-04-09T00:53:20.028Z,14.10
2019-04-09T00:55:53.507Z,14.10
2019-04-09T00:58:28.140Z,14.10
2019-04-09T01:01:07.711Z,14.10
2019-04-09T01:03:42.782Z,14.00
2019-04-09T01:06:15.180Z,14.00
2019-04-09T01:08:47.787Z,14.00
2019-04-09T01:11:21.444Z,13.90
2019-04-09T01:13:56.110Z,13.80
2019-04-09T01:16:29.766Z,13.60
2019-04-09T01:19:09.807Z,13.60
2019-04-09T01:21:35.873Z,13.50
2019-04-09T01:24:07.816Z,13.50
2019-04-09T01:26:49.074Z,13.50
2019-04-09T01:29:35.092Z,13.40
2019-04-09T01:32:35.498Z,13.40
2019-04-09T01:35:26.974Z,13.50
2019-04-09T01:38:22.609Z,13.60
2019-04-09T01:41:06.432Z,13.90
2019-04-09T01:43:59.184Z,13.80
2019-04-09T01:47:04.699Z,14.00
2019-04-09T01:49:56.717Z,14.40
2019-04-09T01:52:34.319Z,14.40
2019-04-09T01:55:15.297Z,14.30
2019-04-09T01:58:06.451Z,14.10
2019-04-09T02:00:58.794Z,14.30
2019-04-09T02:03:53.920Z,14.20
2019-04-09T02:06:48.193Z,14.30
2019-04-09T02:09:27.515Z,14.50
2019-04-09T02:12:14.996Z,14.50
2019-04-09T02:15:04.905Z,14.60
2019-04-09T02:17:55.144Z,14.80
2019-04-09T02:20:39.974Z,14.80
2019-04-09T02:23:41.213Z,15.10
2019-04-09T02:26:37.911Z,15.20
2019-04-09T02:29:25.173Z,15.30
2019-04-09T02:32:22.320Z,15.30
2019-04-09T02:35:24.545Z,15.30
2019-04-09T02:38:25.486Z,15.50
2019-04-09T02:41:07.002Z,15.60
2019-04-09T02:44:03.928Z,15.50
2019-04-09T02:46:43.351Z,15.20
2019-04-09T02:49:35.133Z,15.20
2019-04-09T02:52:16.949Z,15.00
2019-04-09T02:55:10.900Z,15.00
2019-04-09T02:58:07.556Z,14.90
2019-04-09T03:01:02.344Z,14.90
2019-04-09T03:03:53.017Z,14.90
2019-04-09T03:06:40.963Z,14.90
2019-04-09T03:09:20.041Z,15.10
2019-04-09T03:12:20.816Z,14.80
2019-04-09T03:15:01.248Z,15.30
2019-04-09T03:18:04.609Z,15.20
2019-04-09T03:20:55.876Z,15.40
2019-04-09T03:23:51.871Z,14.90
2019-04-09T03:26:55.773Z,14.80
2019-04-09T03:29:34.352Z,14.60
2019-04-09T03:32:16.930Z,14.60
2019-04-09T03:35:06.029Z,14.50
2019-04-09T03:37:54.522Z,14.40
2019-04-09T03:40:48.173Z,14.30
2019-04-09T03:43:50.910Z,14.50
2019-04-09T03:46:53.479Z,14.60
2019-04-09T03:49:46.545Z,14.70
2019-04-09T03:52:29.266Z,14.70
2019-04-09T03:55:15.950Z,14.60
2019-04-09T03:58:17.256Z,14.40
2019-04-09T04:01:16.191Z,14.20
2019-04-09T04:04:05.924Z,14.10
2019-04-09T04:06:56.998Z,14.10
2019-04-09T04:09:57.107Z,14.20
2019-04-09T04:12:48.137Z,14.20
2019-04-09T04:15:53.363Z,14.20
2019-04-09T04:18:44.116Z,14.40
2019-04-09T04:21:35.477Z,14.40
2019-04-09T04:24:28.404Z,14.30
2019-04-09T04:27:17.783Z,14.10
2019-04-09T04:30:19.356Z,14.00
2019-04-09T04:33:02.563Z,13.90
2019-04-09T04:35:53.298Z,13.80
2019-04-09T04:38:40.984Z,14.10
2019-04-09T04:41:24.631Z,14.30
2019-04-09T04:44:32.746Z,14.10
2019-04-09T04:47:22.048Z,13.80
2019-04-09T04:50:05.920Z,13.80
2019-04-09T04:53:02.872Z,13.80
2019-04-09T04:55:57.728Z,13.80
2019-04-09T04:58:45.456Z,13.90
2019-04-09T05:02:00.785Z,14.00
2019-04-09T05:04:50.304Z,14.00
2019-04-09T05:07:42.216Z,14.10
2019-04-09T05:10:27.864Z,14.20
2019-04-09T05:13:18.531Z,14.20
2019-04-09T05:16:24.031Z,14.10
2019-04-09T05:19:30.630Z,14.00
2019-04-09T05:22:21.095Z,13.90
2019-04-09T05:25:23.010Z,14.00
2019-04-09T05:28:16.938Z,14.10
2019-04-09T05:31:14.494Z,14.10
2019-04-09T05:34:05.291Z,14.10
2019-04-09T05:37:08.646Z,14.20
2019-04-09T05:40:08.522Z,14.20
2019-04-09T05:43:16.208Z,14.30
2019-04-09T05:46:07.804Z,14.50
2019-04-09T05:49:05.718Z,14.50
2019-04-09T05:51:53.019Z,14.50
2019-04-09T05:54:34.448Z,14.40
2019-04-09T05:57:20.899Z,14.40
2019-04-09T06:00:10.195Z,14.40
2019-04-09T06:03:02.302Z,14.30
2019-04-09T06:05:57.428Z,14.30
2019-04-09T06:08:48.703Z,14.20
2019-04-09T06:11:21.355Z,14.10
2019-04-09T06:13:54.436Z,14.10
2019-04-09T06:16:27.280Z,14.20
2019-04-09T06:19:03.783Z,14.40
2019-04-09T06:21:42.258Z,14.40
2019-04-09T06:24:12.320Z,14.50
2019-04-09T06:26:46.546Z,14.60
2019-04-09T06:29:21.567Z,14.70
2019-04-09T06:31:53.515Z,14.80
2019-04-09T06:34:44.463Z,14.80
2019-04-09T06:37:43.826Z,14.70
2019-04-09T06:40:39.944Z,14.80
2019-04-09T06:43:28.426Z,14.90
2019-04-09T06:46:31.685Z,15.10
2019-04-09T06:49:18.598Z,15.10
2019-04-09T06:52:28.572Z,15.30
2019-04-09T06:55:33.059Z,15.50
2019-04-09T06:58:28.135Z,15.80
2019-04-09T07:01:20.437Z,16.00
2019-04-09T07:04:10.763Z,16.00
2019-04-09T07:07:01.825Z,16.20
2019-04-09T07:10:07.586Z,16.30
2019-04-09T07:12:53.394Z,16.50
2019-04-09T07:15:43.829Z,16.80
2019-04-09T07:18:33.881Z,17.00
2019-04-09T07:21:17.081Z,17.40
2019-04-09T07:24:11.833Z,17.30
2019-04-09T07:26:52.857Z,17.50
2019-04-09T07:29:51.883Z,17.70
2019-04-09T07:32:25.935Z,17.70
2019-04-09T07:35:20.644Z,17.80
2019-04-09T07:38:07.802Z,17.70
2019-04-09T07:41:06.159Z,17.60
2019-04-09T07:43:49.338Z,17.60
2019-04-09T07:46:32.201Z,18.00
2019-04-09T07:49:30.855Z,19.60
2019-04-09T07:52:28.580Z,18.60
2019-04-09T07:55:08.835Z,20.30
2019-04-09T07:57:49.064Z,20.80
2019-04-09T08:00:55.271Z,21.40
2019-04-09T08:03:45.991Z,22.20
2019-04-09T08:06:48.170Z,22.30
2019-04-09T08:09:28.120Z,22.50
2019-04-09T08:12:21.874Z,22.70
2019-04-09T08:15:04.470Z,21.70
2019-04-09T08:18:03.061Z,21.00
2019-04-09T08:20:56.759Z,20.90
2019-04-09T08:23:53.117Z,20.20
2019-04-09T08:26:52.024Z,20.40
2019-04-09T08:30:16.631Z,19.80
2019-04-09T08:33:02.113Z,19.50
2019-04-09T08:35:58.622Z,19.30
2019-04-09T08:38:45.489Z,19.70
2019-04-09T08:41:40.165Z,19.30
2019-04-09T08:44:39.618Z,19.50
2019-04-09T08:47:37.380Z,19.30
2019-04-09T08:50:26.176Z,19.10
2019-04-09T08:53:27.176Z,19.00
2019-04-09T08:56:11.360Z,19.50
2019-04-09T08:59:20.390Z,19.30
2019-04-09T09:02:24.827Z,19.40
2019-04-09T09:05:06.617Z,20.30
2019-04-09T09:07:48.366Z,21.00
2019-04-09T09:10:39.994Z,20.70
2019-04-09T09:13:40.411Z,20.70
2019-04-09T09:16:30.129Z,20.70
2019-04-09T09:19:20.433Z,20.90
2019-04-09T09:22:32.523Z,21.60
2019-04-09T09:25:27.525Z,21.10
2019-04-09T09:28:26.755Z,20.80
2019-04-09T09:31:24.436Z,21.40
2019-04-09T09:34:12.764Z,21.70
2019-04-09T09:37:16.875Z,21.40
2019-04-09T09:40:19.651Z,21.30
2019-04-09T09:43:18.843Z,21.50
2019-04-09T09:46:08.423Z,21.70
2019-04-09T09:49:06.287Z,22.30
2019-04-09T09:52:09.026Z,21.30
2019-04-09T09:55:12.938Z,21.20
2019-04-09T09:58:06.945Z,20.70
2019-04-09T10:00:48.958Z,20.50
2019-04-09T10:04:05.234Z,20.20
2019-04-09T10:06:51.066Z,20.30
2019-04-09T10:09:45.571Z,20.30
2019-04-09T10:12:45.789Z,20.20
2019-04-09T10:15:32.494Z,19.90
2019-04-09T10:18:29.830Z,19.90
2019-04-09T10:21:20.928Z,19.90
2019-04-09T10:24:25.218Z,19.70
2019-04-09T10:27:15.615Z,19.70
2019-04-09T10:30:08.372Z,19.60
2019-04-09T10:33:13.199Z,19.70
2019-04-09T10:36:05.648Z,19.60
2019-04-09T10:38:58.969Z,19.60
2019-04-09T10:41:51.827Z,19.50
2019-04-09T10:45:03.594Z,19.30
2019-04-09T10:47:50.160Z,19.70
2019-04-09T10:50:42.466Z,19.60
2019-04-09T10:53:35.492Z,19.70
2019-04-09T10:56:38.705Z,19.80
2019-04-09T10:59:32.250Z,20.80
2019-04-09T11:02:49.303Z,20.60
2019-04-09T11:05:47.381Z,20.20
2019-04-09T11:08:43.570Z,19.90
2019-04-09T11:11:37.349Z,20.00
2019-04-09T11:14:34.772Z,19.80
2019-04-09T11:17:21.091Z,20.10
2019-04-09T11:20:11.592Z,20.10
2019-04-09T11:23:10.547Z,20.10
2019-04-09T11:26:21.429Z,19.80
2019-04-09T11:29:20.852Z,19.80
2019-04-09T11:32:16.127Z,20.10
2019-04-09T11:35:14.381Z,20.50
2019-04-09T11:38:03.499Z,20.70
2019-04-09T11:40:53.677Z,20.40
2019-04-09T11:43:40.743Z,20.80
2019-04-09T11:46:35.359Z,21.20
2019-04-09T11:49:28.897Z,20.50
2019-04-09T11:52:26.139Z,20.10
2019-04-09T11:55:33.594Z,19.60
2019-04-09T11:58:28.129Z,19.50
2019-04-09T12:01:34.551Z,19.30
2019-04-09T12:04:27.947Z,19.20
2019-04-09T12:07:24.150Z,19.20
2019-04-09T12:10:14.496Z,19.00
2019-04-09T12:13:06.352Z,19.00
2019-04-09T12:16:07.676Z,18.90
2019-04-09T12:18:55.814Z,18.60
2019-04-09T12:21:59.593Z,18.50
2019-04-09T12:24:53.612Z,18.60
2019-04-09T12:27:34.576Z,18.00
2019-04-09T12:30:31.907Z,17.50
2019-04-09T12:33:38.520Z,17.20
2019-04-09T12:36:29.516Z,17.10
2019-04-09T12:39:20.110Z,17.00
2019-04-09T12:42:44.920Z,17.00
2019-04-09T12:46:29.076Z,16.80
2019-04-09T12:50:11.870Z,16.60
2019-04-09T12:53:32.068Z,16.70
2019-04-09T12:56:35.402Z,16.80
2019-04-09T12:59:17.802Z,16.90
2019-04-09T13:02:34.942Z,16.90
2019-04-09T13:05:21.624Z,16.80
2019-04-09T13:08:17.985Z,16.50
2019-04-09T13:11:28.586Z,16.30
2019-04-09T13:14:19.514Z,16.10
2019-04-09T13:17:28.188Z,15.90
2019-04-09T13:20:38.022Z,15.80
2019-04-09T13:23:32.640Z,16.20
2019-04-09T13:26:30.111Z,16.90
2019-04-09T13:29:14.827Z,17.20
2019-04-09T13:32:04.687Z,17.70
2019-04-09T13:34:59.621Z,17.20
2019-04-09T13:37:53.527Z,17.00
2019-04-09T13:40:53.638Z,16.90
2019-04-09T13:43:48.390Z,16.90
2019-04-09T13:46:43.112Z,17.00
2019-04-09T13:49:37.196Z,16.90
2019-04-09T13:52:30.090Z,17.00
2019-04-09T13:55:04.386Z,16.80
2019-04-09T13:57:38.098Z,16.50
2019-04-09T14:00:14.988Z,16.30
2019-04-09T14:03:23.778Z,16.20
2019-04-09T14:05:43.812Z,15.80
2019-04-09T14:08:28.841Z,16.00
2019-04-09T14:11:03.110Z,15.80
2019-04-09T14:13:36.664Z,15.70
2019-04-09T14:16:11.020Z,15.70
2019-04-09T14:18:44.445Z,15.80
2019-04-09T14:21:17.165Z,15.80
2019-04-09T14:23:52.253Z,15.90
2019-04-09T14:26:25.035Z,16.00
2019-04-09T14:28:57.756Z,15.90
2019-04-09T14:31:31.734Z,15.90
2019-04-09T14:34:05.363Z,16.00
2019-04-09T14:36:37.949Z,16.10
2019-04-09T14:39:12.928Z,16.50
2019-04-09T14:41:46.298Z,16.30
2019-04-09T14:44:21.692Z,16.40
2019-04-09T14:47:14.271Z,16.20
2019-04-09T14:49:47.311Z,16.10
2019-04-09T14:52:20.809Z,16.30
2019-04-09T14:54:54.229Z,16.30
2019-04-09T14:57:27.153Z,16.30
2019-04-09T15:00:04.777Z,16.20
2019-04-09T15:02:38.430Z,16.20
2019-04-09T15:05:10.929Z,16.20
2019-04-09T15:07:45.985Z,16.10
2019-04-09T15:10:19.734Z,16.10
2019-04-09T15:12:55.065Z,16.20
2019-04-09T15:15:28.355Z,16.30
2019-04-09T15:18:00.851Z,16.30
2019-04-09T15:20:34.082Z,16.40
2019-04-09T15:23:07.647Z,16.50
2019-04-09T15:25:42.711Z,16.60
2019-04-09T15:28:18.134Z,16.80
2019-04-09T15:30:51.590Z,16.70
2019-04-09T15:33:31.987Z,16.60
2019-04-09T15:35:59.554Z,16.50
2019-04-09T15:38:34.036Z,16.50
2019-04-09T15:41:07.103Z,16.50
2019-04-09T15:43:42.818Z,16.40
2019-04-09T15:46:17.203Z,16.30
2019-04-09T15:48:51.879Z,16.30
2019-04-09T15:51:25.384Z,16.30
2019-04-09T15:53:59.353Z,16.20
2019-04-09T15:56:32.831Z,16.10
2019-04-09T15:59:08.665Z,16.10
2019-04-09T16:01:41.976Z,16.00
2019-04-09T16:04:17.355Z,15.90
2019-04-09T16:06:50.993Z,15.80
2019-04-09T16:09:25.340Z,15.70
2019-04-09T16:11:58.485Z,15.60
2019-04-09T16:14:32.815Z,15.50
2019-04-09T16:17:06.624Z,15.60
2019-04-09T16:19:40.510Z,15.60
2019-04-09T16:22:13.854Z,15.60
2019-04-09T16:24:48.584Z,15.50
2019-04-09T16:27:22.783Z,15.50
2019-04-09T16:29:54.936Z,15.40
2019-04-09T16:32:31.353Z,15.40
2019-04-09T16:35:04.337Z,15.30
2019-04-09T16:37:39.510Z,15.30
2019-04-09T16:40:14.874Z,15.20
2019-04-09T16:42:48.363Z,15.10
2019-04-09T16:45:23.349Z,15.00
2019-04-09T16:47:57.754Z,14.90
2019-04-09T16:50:30.812Z,14.80
2019-04-09T16:53:04.863Z,14.70
2019-04-09T16:55:39.659Z,14.60
2019-04-09T16:58:14.966Z,14.50
2019-04-09T17:00:50.020Z,14.40
2019-04-09T17:03:35.724Z,14.30
2019-04-09T17:05:58.339Z,14.20
2019-04-09T17:08:32.294Z,14.20
2019-04-09T17:11:06.595Z,14.10
2019-04-09T17:13:41.303Z,14.10
2019-04-09T17:16:16.001Z,14.00
2019-04-09T17:18:50.687Z,13.90
2019-04-09T17:21:23.769Z,13.90
2019-04-09T17:23:58.136Z,13.80
2019-04-09T17:26:42.321Z,13.80
2019-04-09T17:29:15.232Z,13.70
2019-04-09T17:31:49.020Z,13.60
2019-04-09T17:34:30.226Z,13.60
2019-04-09T17:36:58.752Z,13.50
2019-04-09T17:39:31.165Z,13.50
2019-04-09T17:42:09.803Z,13.50
2019-04-09T17:44:40.055Z,13.50
2019-04-09T17:47:13.999Z,13.50
2019-04-09T17:49:47.241Z,13.50
2019-04-09T17:52:22.066Z,13.50
2019-04-09T17:54:55.400Z,13.40
2019-04-09T17:57:28.312Z,13.40
2019-04-09T18:00:02.706Z,13.50
2019-04-09T18:02:37.375Z,13.70
2019-04-09T18:05:11.172Z,13.70
2019-04-09T18:07:46.648Z,13.60
2019-04-09T18:10:20.223Z,13.40
2019-04-09T18:12:52.411Z,13.30
2019-04-09T18:15:25.288Z,13.40
2019-04-09T18:17:59.927Z,13.40
2019-04-09T18:20:36.058Z,13.40
2019-04-09T18:23:09.735Z,13.40
2019-04-09T18:25:56.009Z,13.50
2019-04-09T18:28:20.396Z,13.50
2019-04-09T18:30:56.206Z,13.50
2019-04-09T18:33:30.070Z,13.40
2019-04-09T18:36:04.219Z,13.30
2019-04-09T18:38:39.322Z,13.30
2019-04-09T18:41:14.421Z,13.40
2019-04-09T18:43:48.937Z,13.30
2019-04-09T18:46:23.963Z,13.30
2019-04-09T18:48:57.292Z,13.20
2019-04-09T18:51:33.020Z,13.20
2019-04-09T18:54:07.200Z,13.20
2019-04-09T18:56:41.607Z,13.20
2019-04-09T18:59:15.638Z,13.20
2019-04-09T19:01:49.352Z,13.30
2019-04-09T19:04:23.756Z,13.40
2019-04-09T19:06:57.832Z,13.30
2019-04-09T19:09:32.390Z,13.30
2019-04-09T19:12:04.561Z,13.20
2019-04-09T19:14:39.857Z,13.20
2019-04-09T19:17:13.601Z,13.10
2019-04-09T19:19:47.202Z,13.00
2019-04-09T19:22:21.642Z,13.00
2019-04-09T19:24:57.665Z,13.00
2019-04-09T19:27:31.695Z,13.10
2019-04-09T19:30:04.966Z,13.10
2019-04-09T19:32:39.233Z,13.00
2019-04-09T19:35:18.977Z,13.00
2019-04-09T19:37:48.894Z,13.00
2019-04-09T19:40:22.815Z,13.00
2019-04-09T19:42:57.769Z,12.90
2019-04-09T19:45:37.079Z,12.90
2019-04-09T19:48:11.080Z,12.90
2019-04-09T19:50:44.876Z,12.90
2019-04-09T19:53:22.562Z,12.90
2019-04-09T19:55:58.852Z,12.80
2019-04-09T19:58:41.965Z,12.70
2019-04-09T20:01:07.927Z,12.80
2019-04-09T20:03:41.826Z,12.90
2019-04-09T20:06:13.837Z,13.00
2019-04-09T20:08:47.412Z,13.00
2019-04-09T20:11:21.484Z,13.00
2019-04-09T20:13:56.445Z,13.00
2019-04-09T20:16:30.828Z,13.10
2019-04-09T20:19:04.780Z,13.10
2019-04-09T20:21:38.901Z,13.20
2019-04-09T20:24:12.064Z,13.10
2019-04-09T20:26:46.427Z,12.90
2019-04-09T20:29:20.770Z,12.80
2019-04-09T20:31:55.796Z,12.80
2019-04-09T20:34:29.768Z,12.80
2019-04-09T20:37:03.245Z,12.90
2019-04-09T20:39:39.898Z,12.80
2019-04-09T20:42:12.773Z,12.70
2019-04-09T20:44:47.392Z,12.60
2019-04-09T20:47:21.585Z,12.60
2019-04-09T20:49:54.980Z,12.60
2019-04-09T20:52:27.610Z,12.70
2019-04-09T20:55:05.102Z,12.70
2019-04-09T20:57:40.010Z,12.70
2019-04-09T21:00:58.629Z,12.70
2019-04-09T21:04:02.034Z,12.70
2019-04-09T21:06:32.985Z,12.80
2019-04-09T21:09:08.006Z,12.80
2019-04-09T21:11:42.352Z,12.70
2019-04-09T21:14:16.486Z,12.70
2019-04-09T21:16:49.896Z,12.80
2019-04-09T21:19:22.995Z,12.70
2019-04-09T21:22:05.965Z,12.70
2019-04-09T21:24:39.780Z,12.60
2019-04-09T21:27:16.121Z,12.50
2019-04-09T21:29:49.130Z,12.60
2019-04-09T21:32:22.824Z,12.60
2019-04-09T21:34:55.324Z,12.70
2019-04-09T21:37:28.266Z,12.70
2019-04-09T21:40:01.690Z,12.60
2019-04-09T21:42:36.289Z,12.60
2019-04-09T21:45:11.616Z,12.50
2019-04-09T21:47:46.849Z,12.50
2019-04-09T21:50:20.375Z,12.40
2019-04-09T21:52:53.416Z,12.50
2019-04-09T21:55:28.574Z,12.70
2019-04-09T21:58:01.461Z,12.70
2019-04-09T22:00:47.036Z,12.90
2019-04-09T22:03:27.875Z,13.00
2019-04-09T22:06:01.013Z,12.90
2019-04-09T22:08:34.147Z,12.70
2019-04-09T22:11:08.376Z,12.60
2019-04-09T22:13:42.026Z,12.60
2019-04-09T22:16:15.695Z,12.60
2019-04-09T22:18:48.800Z,12.60
2019-04-09T22:21:22.583Z,12.70
2019-04-09T22:23:58.433Z,12.60
2019-04-09T22:26:33.922Z,12.40
2019-04-09T22:29:07.186Z,12.30
2019-04-09T22:31:40.452Z,12.50
2019-04-09T22:34:13.805Z,12.50
2019-04-09T22:36:48.495Z,12.50
2019-04-09T22:39:21.254Z,12.30
2019-04-09T22:41:54.144Z,12.20
2019-04-09T22:44:27.363Z,12.20
2019-04-09T22:47:00.965Z,12.20
2019-04-09T22:49:35.244Z,12.30
2019-04-09T22:52:08.415Z,12.60
2019-04-09T22:54:41.426Z,12.70
2019-04-09T22:57:13.948Z,12.80
2019-04-09T22:59:48.117Z,12.80
2019-04-09T23:02:31.121Z,12.70
2019-04-09T23:05:22.579Z,12.50
2019-04-09T23:08:00.950Z,12.40
2019-04-09T23:10:48.851Z,12.20
2019-04-09T23:13:22.664Z,12.20
2019-04-09T23:15:54.972Z,12.20
2019-04-09T23:18:28.799Z,12.20
2019-04-09T23:21:03.314Z,12.20
2019-04-09T23:23:37.951Z,12.30
2019-04-09T23:26:11.915Z,12.30
2019-04-09T23:28:47.613Z,12.40
2019-04-09T23:48:42.588Z,12.10
2019-04-09T23:51:15.588Z,12.20
2019-04-09T23:53:49.596Z,12.20
2019-04-09T23:56:21.605Z,12.30
2019-04-09T23:59:06.021Z,12.30
